Time;durP1;ratioP1;P1;durP2;ratioP2;P2;SDS_P1;SDS_P2;PMS_P1;PMS_P2;Temp;Humidity;BMP_temperature;BMP_pressure;BME280_temperature;BME280_humidity;BME280_pressure;Samples;Min_cycle;Max_cycle;Signal;HPM_P1;HPM_P2
2022/07/02 00:08:57;;;;;;;0.20;0.00;;;21.10;99.90;;;;;;21248485;28;20191;-71
2022/07/02 00:19:02;;;;;;;0.20;0.10;;;21.20;99.90;;;;;;21247905;28;20226;-71
2022/07/02 00:29:16;;;;;;;0.20;0.10;;;21.10;99.90;;;;;;21248249;28;20215;-71
2022/07/02 00:39:21;;;;;;;0.20;0.00;;;20.90;99.90;;;;;;21162613;28;20263;-72
2022/07/02 00:49:27;;;;;;;0.20;0.10;;;21.00;99.90;;;;;;21163256;28;20239;-72
2022/07/02 00:59:33;;;;;;;0.20;0.00;;;20.90;99.90;;;;;;21162994;28;20211;-72
2022/07/02 01:20:04;;;;;;;0.20;0.00;;;21.10;99.90;;;;;;21176615;28;20295;-71
2022/07/02 01:30:10;;;;;;;0.20;0.00;;;21.10;99.90;;;;;;21176605;28;20235;-72
2022/07/02 01:40:14;;;;;;;0.20;0.10;;;21.10;99.90;;;;;;21175948;28;20191;-73
2022/07/02 01:50:19;;;;;;;0.20;0.10;;;21.00;99.90;;;;;;21175120;28;20243;-73
2022/07/02 02:00:29;;;;;;;0.20;0.00;;;21.00;99.90;;;;;;21174725;28;20197;-72
2022/07/02 02:10:34;;;;;;;0.20;0.00;;;20.90;99.90;;;;;;21173169;28;20215;-72
2022/07/02 02:20:38;;;;;;;0.20;0.10;;;20.50;99.90;;;;;;21172132;28;20227;-71
2022/07/02 02:30:43;;;;;;;0.20;0.10;;;20.50;99.90;;;;;;21170741;28;20247;-72
2022/07/02 02:40:47;;;;;;;0.20;0.10;;;21.00;99.90;;;;;;21170186;28;20192;-72
2022/07/02 02:50:52;;;;;;;0.20;0.00;;;21.20;99.90;;;;;;21170256;28;20278;-71
2022/07/02 03:00:56;;;;;;;0.20;0.10;;;21.10;99.90;;;;;;21169270;28;20188;-70
2022/07/02 03:11:02;;;;;;;0.20;0.00;;;21.10;99.90;;;;;;21168545;28;20230;-72
2022/07/02 03:21:06;;;;;;;0.20;0.00;;;21.00;99.90;;;;;;21167372;28;20227;-71
2022/07/02 03:31:11;;;;;;;0.20;0.00;;;20.90;99.90;;;;;;21166102;28;20232;-70
2022/07/02 03:41:15;;;;;;;0.20;0.10;;;20.80;99.90;;;;;;21166832;28;20226;-71
2022/07/02 03:51:21;;;;;;;0.20;0.00;;;21.00;99.90;;;;;;21166453;28;20243;-73
2022/07/02 04:01:24;;;;;;;0.20;0.00;;;21.00;99.90;;;;;;21164723;28;20192;-73
2022/07/02 04:11:29;;;;;;;0.20;0.10;;;21.00;99.90;;;;;;21163237;28;20224;-72
2022/07/02 04:21:33;;;;;;;0.20;0.00;;;21.00;99.90;;;;;;21162361;28;20212;-72
2022/07/02 04:31:39;;;;;;;0.20;0.00;;;21.00;99.90;;;;;;21168322;28;20234;-72
2022/07/02 04:41:42;;;;;;;0.20;0.00;;;21.20;99.90;;;;;;21251369;28;20202;-72
2022/07/02 04:51:48;;;;;;;0.20;0.00;;;21.30;99.90;;;;;;21263420;28;20207;-72
2022/07/02 05:01:52;;;;;;;0.20;0.00;;;21.40;99.90;;;;;;21245284;28;20187;-73
2022/07/02 05:11:58;;;;;;;0.20;0.00;;;21.50;99.90;;;;;;21262653;28;20255;-73
2022/07/02 05:22:02;;;;;;;0.20;0.00;;;21.60;99.90;;;;;;21261628;28;20230;-73
2022/07/02 05:32:08;;;;;;;0.20;0.00;;;21.60;99.90;;;;;;21250746;28;20227;-73
2022/07/02 05:42:12;;;;;;;0.20;0.00;;;21.60;99.90;;;;;;21175037;28;20253;-71
2022/07/02 05:52:18;;;;;;;0.20;0.00;;;21.80;99.90;;;;;;21245531;28;20241;-73
2022/07/02 06:02:21;;;;;;;0.20;0.00;;;22.30;99.90;;;;;;21256360;28;20203;-73
2022/07/02 06:12:27;;;;;;;0.20;0.00;;;22.60;99.90;;;;;;21256109;28;20219;-72
2022/07/02 06:22:31;;;;;;;0.20;0.00;;;23.00;99.90;;;;;;21255584;28;20220;-72
2022/07/02 06:32:37;;;;;;;0.20;0.00;;;23.50;99.90;;;;;;21254638;28;20246;-71
2022/07/02 06:42:40;;;;;;;0.20;0.00;;;23.50;99.90;;;;;;21253233;28;20179;-72
2022/07/02 06:52:46;;;;;;;0.20;0.00;;;23.70;99.90;;;;;;21253117;28;20242;-70
2022/07/02 07:02:50;;;;;;;0.20;0.00;;;23.70;99.90;;;;;;21252783;28;20204;-71
2022/07/02 07:12:59;;;;;;;0.20;0.00;;;23.70;99.90;;;;;;21251557;28;20338;-72
2022/07/02 07:23:03;;;;;;;0.20;0.00;;;23.70;99.90;;;;;;21249086;28;20223;-72
2022/07/02 07:33:08;;;;;;;0.20;0.00;;;23.60;99.90;;;;;;21231750;28;20218;-72
2022/07/02 07:43:12;;;;;;;0.20;0.00;;;23.70;99.90;;;;;;21249900;28;20230;-72
2022/07/02 07:53:17;;;;;;;0.20;0.00;;;23.80;99.90;;;;;;21247356;28;20231;-71
2022/07/02 08:03:21;;;;;;;0.20;0.10;;;24.10;99.90;;;;;;21247147;28;20203;-72
2022/07/02 08:13:26;;;;;;;0.20;0.00;;;24.30;99.90;;;;;;21246651;28;20256;-69
2022/07/02 08:23:30;;;;;;;0.20;0.00;;;24.50;99.90;;;;;;21274676;27;20219;-70
2022/07/02 08:33:36;;;;;;;0.20;0.00;;;24.90;99.90;;;;;;21275292;28;20725;-71
2022/07/02 08:43:42;;;;;;;0.20;0.00;;;24.60;99.90;;;;;;21273091;28;20214;-72
2022/07/02 08:53:47;;;;;;;0.20;0.00;;;24.80;99.90;;;;;;21273771;28;20219;-71
2022/07/02 09:03:53;;;;;;;0.20;0.00;;;24.60;99.90;;;;;;21273654;28;20238;-70
2022/07/02 09:13:59;;;;;;;0.20;0.00;;;24.80;99.90;;;;;;21272655;28;20226;-71
2022/07/02 09:24:03;;;;;;;0.20;0.00;;;25.00;99.90;;;;;;21272786;28;20242;-70
2022/07/02 09:34:08;;;;;;;0.20;0.00;;;25.10;99.90;;;;;;21259829;28;20250;-72
2022/07/02 09:44:13;;;;;;;0.20;0.10;;;25.20;99.90;;;;;;21258560;28;20218;-71
2022/07/02 09:54:22;;;;;;;0.20;0.00;;;25.50;99.90;;;;;;21254825;28;20223;-69
2022/07/02 10:04:29;;;;;;;0.20;0.00;;;25.50;99.90;;;;;;21254764;28;20188;-71
2022/07/02 10:14:37;;;;;;;0.20;0.00;;;25.40;99.90;;;;;;21253296;28;20223;-72
2022/07/02 10:24:42;;;;;;;0.20;0.10;;;25.70;99.90;;;;;;21251281;28;20228;-71
2022/07/02 10:34:55;;;;;;;0.20;0.00;;;26.10;99.90;;;;;;21249540;28;20238;-71
2022/07/02 10:45:09;;;;;;;0.20;0.00;;;25.90;99.90;;;;;;21251509;28;20206;-72
2022/07/02 10:55:25;;;;;;;0.20;0.00;;;26.10;99.90;;;;;;21252135;28;20241;-72
2022/07/02 11:05:29;;;;;;;0.20;0.00;;;26.60;99.90;;;;;;21248475;28;20199;-68
2022/07/02 11:15:37;;;;;;;0.20;0.10;;;26.40;99.90;;;;;;21248347;28;20257;-72
2022/07/02 11:25:41;;;;;;;0.20;0.00;;;26.60;99.90;;;;;;21248801;28;20226;-71
2022/07/02 11:35:51;;;;;;;0.20;0.00;;;26.90;99.90;;;;;;21246735;28;20243;-73
2022/07/02 11:45:55;;;;;;;0.20;0.00;;;27.40;99.90;;;;;;21248132;28;20214;-72
2022/07/02 11:56:08;;;;;;;0.20;0.00;;;27.80;99.90;;;;;;21245629;28;20219;-74
2022/07/02 12:06:12;;;;;;;0.20;0.10;;;28.50;99.90;;;;;;21246886;28;20222;-73
2022/07/02 12:16:21;;;;;;;0.20;0.00;;;28.00;99.90;;;;;;21246469;28;20231;-73
2022/07/02 12:26:26;;;;;;;21.40;17.75;;;28.20;99.90;;;;;;21247079;28;20187;-72
2022/07/02 12:36:31;;;;;;;0.20;0.00;;;28.50;99.90;;;;;;21246629;28;20250;-72
2022/07/02 12:46:44;;;;;;;0.20;0.00;;;28.90;99.90;;;;;;21246612;28;20191;-73
2022/07/02 12:56:49;;;;;;;0.20;0.00;;;29.00;99.90;;;;;;21245840;28;20242;-74
2022/07/02 13:06:53;;;;;;;0.20;0.00;;;29.80;99.90;;;;;;21256477;28;20214;-71
2022/07/02 13:16:58;;;;;;;0.20;0.10;;;30.60;99.90;;;;;;21252777;28;20222;-74
2022/07/02 13:27:20;;;;;;;0.20;0.00;;;30.30;99.90;;;;;;21257567;28;20202;-72
2022/07/02 13:37:26;;;;;;;0.20;0.00;;;30.40;99.90;;;;;;21257133;28;20226;-71
2022/07/02 13:47:30;;;;;;;0.20;0.00;;;30.90;99.90;;;;;;21256508;28;20238;-74
2022/07/02 13:57:35;;;;;;;0.20;0.00;;;30.90;99.90;;;;;;21255450;28;20219;-72
2022/07/02 14:07:39;;;;;;;0.20;0.00;;;30.80;99.90;;;;;;21254272;28;20260;-73
2022/07/02 14:17:47;;;;;;;0.20;0.10;;;30.90;99.90;;;;;;21251466;28;20348;-69
2022/07/02 14:27:52;;;;;;;0.20;0.10;;;31.20;99.90;;;;;;21251582;28;20198;-73
2022/07/02 14:37:57;;;;;;;0.20;0.00;;;31.30;99.90;;;;;;21250986;28;20245;-74
2022/07/02 14:48:01;;;;;;;0.20;0.00;;;31.40;99.90;;;;;;21250663;28;20202;-73
2022/07/02 14:58:07;;;;;;;0.20;0.00;;;31.80;99.90;;;;;;21249224;28;20219;-71
2022/07/02 15:08:11;;;;;;;0.20;0.00;;;31.80;99.90;;;;;;21247819;28;20203;-72
2022/07/02 15:18:16;;;;;;;0.20;0.00;;;31.80;99.90;;;;;;21241517;28;20579;-72
2022/07/02 15:28:23;;;;;;;0.20;0.00;;;31.60;99.90;;;;;;21242628;28;20202;-71
2022/07/02 15:38:28;;;;;;;0.20;0.10;;;31.20;99.90;;;;;;21246880;28;20239;-72
2022/07/02 15:48:33;;;;;;;0.20;0.00;;;31.40;99.90;;;;;;21240822;28;20199;-72
2022/07/02 15:58:44;;;;;;;0.20;0.00;;;31.00;99.90;;;;;;21247048;28;20253;-71
2022/07/02 16:08:50;;;;;;;0.20;0.00;;;31.40;99.90;;;;;;21247520;28;20194;-72
2022/07/02 16:18:57;;;;;;;0.20;0.00;;;30.80;99.90;;;;;;21246002;28;20231;-71
2022/07/02 16:29:00;;;;;;;0.20;0.00;;;30.60;99.90;;;;;;21244463;28;20218;-72
2022/07/02 16:39:08;;;;;;;0.20;0.00;;;30.50;99.90;;;;;;21251745;28;20226;-72
2022/07/02 16:49:16;;;;;;;0.20;0.00;;;30.10;99.90;;;;;;21261504;28;20187;-72
2022/07/02 16:59:21;;;;;;;0.20;0.00;;;29.60;99.90;;;;;;21261863;28;20254;-73
2022/07/02 17:09:25;;;;;;;0.20;0.00;;;30.00;99.90;;;;;;21260842;28;20195;-73
2022/07/02 17:19:30;;;;;;;0.20;0.00;;;30.20;99.90;;;;;;21260901;27;20233;-76
2022/07/02 17:29:34;;;;;;;0.20;0.10;;;30.40;99.90;;;;;;21258826;28;20210;-73
2022/07/02 17:39:39;;;;;;;0.20;0.00;;;30.30;99.90;;;;;;21256339;28;20256;-72
2022/07/02 17:49:45;;;;;;;0.20;0.00;;;29.90;99.90;;;;;;21254060;28;20194;-73
2022/07/02 17:59:51;;;;;;;0.20;0.00;;;29.50;99.90;;;;;;21256617;28;20226;-74
2022/07/02 18:09:55;;;;;;;0.20;0.10;;;28.90;99.90;;;;;;21236139;28;20206;-76
2022/07/02 18:20:00;;;;;;;0.20;0.10;;;28.60;99.90;;;;;;21251786;28;20331;-73
2022/07/02 18:30:05;;;;;;;0.20;0.10;;;28.00;99.90;;;;;;21244519;28;20272;-70
2022/07/02 18:40:12;;;;;;;0.20;0.00;;;27.20;99.90;;;;;;21243622;28;20215;-74
2022/07/02 18:50:15;;;;;;;0.20;0.00;;;26.80;99.90;;;;;;21247663;28;20237;-75
2022/07/02 19:00:21;;;;;;;0.20;0.00;;;26.50;99.90;;;;;;21244939;28;20242;-73
2022/07/02 19:10:26;;;;;;;0.20;0.00;;;26.00;99.90;;;;;;21243878;28;20187;-74
2022/07/02 19:20:31;;;;;;;0.20;0.00;;;25.80;99.90;;;;;;21244678;28;20234;-75
2022/07/02 19:30:35;;;;;;;0.20;0.10;;;25.40;99.90;;;;;;21243170;28;20192;-73
2022/07/02 19:40:41;;;;;;;0.20;0.00;;;25.10;99.90;;;;;;21243479;28;20211;-74
2022/07/02 19:50:45;;;;;;;0.20;0.00;;;25.20;99.90;;;;;;21210234;28;20199;-74
2022/07/02 20:00:50;;;;;;;0.20;0.10;;;24.90;99.90;;;;;;21241885;28;20219;-73
2022/07/02 20:10:54;;;;;;;0.20;0.00;;;24.80;99.90;;;;;;21241491;28;20218;-74
2022/07/02 20:20:59;;;;;;;0.20;0.10;;;24.60;99.90;;;;;;21240489;28;20231;-73
2022/07/02 20:31:04;;;;;;;0.20;0.00;;;24.40;99.90;;;;;;21242419;28;20230;-75
2022/07/02 20:41:15;;;;;;;0.20;0.10;;;24.40;99.90;;;;;;21239630;28;20249;-74
2022/07/02 20:51:19;;;;;;;0.20;0.00;;;24.10;99.90;;;;;;21243037;28;20221;-74
2022/07/02 21:01:24;;;;;;;0.20;0.10;;;24.20;99.90;;;;;;21244363;28;20245;-76
2022/07/02 21:11:29;;;;;;;0.20;0.00;;;24.00;99.90;;;;;;21246638;28;20203;-76
2022/07/02 21:21:35;;;;;;;0.20;0.00;;;23.90;99.90;;;;;;21247838;28;20227;-75
2022/07/02 21:31:38;;;;;;;0.20;0.00;;;23.70;99.90;;;;;;21261515;28;20252;-73
2022/07/02 21:41:44;;;;;;;0.20;0.00;;;23.90;99.90;;;;;;21259100;28;20231;-75
2022/07/02 21:51:47;;;;;;;0.20;0.00;;;23.70;99.90;;;;;;21252911;28;20195;-75
2022/07/02 22:01:53;;;;;;;0.20;0.00;;;23.60;99.90;;;;;;21234752;28;20653;-75
2022/07/02 22:11:55;;;;;;;0.20;0.10;;;23.40;99.90;;;;;;21233591;28;20259;-74
2022/07/02 22:22:00;;;;;;;0.20;0.00;;;23.50;99.90;;;;;;21249301;28;20231;-74
2022/07/02 22:32:08;;;;;;;0.20;0.00;;;23.10;99.90;;;;;;21250256;28;20195;-75
2022/07/02 22:42:13;;;;;;;0.20;0.00;;;22.90;99.90;;;;;;21247306;28;20225;-74
2022/07/02 22:52:17;;;;;;;0.20;0.00;;;22.90;99.90;;;;;;21247631;28;20226;-74
2022/07/02 23:02:22;;;;;;;0.20;0.00;;;22.90;99.90;;;;;;21247627;28;20254;-75
2022/07/02 23:12:26;;;;;;;0.20;0.00;;;23.10;99.90;;;;;;21245155;28;20660;-76
2022/07/02 23:22:32;;;;;;;0.20;0.10;;;22.80;99.90;;;;;;21244972;28;20294;-74
2022/07/02 23:32:37;;;;;;;0.20;0.00;;;22.40;99.90;;;;;;21243955;28;20207;-72
2022/07/02 23:42:42;;;;;;;0.20;0.00;;;22.40;99.90;;;;;;21243374;28;20212;-72
2022/07/02 23:52:47;;;;;;;0.20;0.00;;;22.30;99.90;;;;;;21243040;28;20223;-73
